METAR Data
IDs: Format: Raw Decoded Include TAF

Data at: 1752 UTC 16 Oct 2021

KECU 161735Z AUTO 03009KT 010V070 10SM CLR 18/M02 A3046 RMK AO2
KECU 161715Z AUTO 07008G14KT 10SM CLR 18/M02 A3047 RMK AO2
KECU 161655Z AUTO 04009G16KT 10SM CLR 18/M03 A3047 RMK AO2
KECU 161635Z AUTO 05010KT 10SM CLR 17/M01 A3048 RMK AO2
KECU 161615Z AUTO 06012KT 030V090 10SM CLR 17/M02 A3048 RMK AO2
KECU 161555Z AUTO 04008G19KT 10SM CLR 17/M01 A3048 RMK AO2
KECU 161535Z AUTO 04011G18KT 10SM CLR 16/M00 A3047 RMK AO2
KECU 161515Z AUTO 04011G17KT 10SM CLR 15/01 A3047 RMK AO2
KECU 161455Z AUTO 04010G16KT 10SM CLR 14/02 A3047 RMK AO2
KECU 161435Z AUTO 05007G17KT 10SM CLR 13/03 A3047 RMK AO2
KECU 161415Z AUTO 05008KT 020V090 10SM CLR 12/04 A3046 RMK AO2
KECU 161355Z AUTO VRB05KT 10SM CLR 11/05 A3045 RMK AO2
KECU 161335Z AUTO 03004KT 10SM CLR 10/04 A3044 RMK AO2
KECU 161315Z AUTO 04007KT 10SM CLR 10/04 A3043 RMK AO2
KECU 161255Z AUTO 02008KT 10SM CLR 09/04 A3041 RMK AO2
KECU 161235Z AUTO 02007KT 10SM CLR 09/04 A3041 RMK AO2
KECU 161215Z AUTO 03006KT 10SM CLR 09/04 A3041 RMK AO2
KECU 161155Z AUTO 02004KT 10SM CLR 10/04 A3041 RMK AO2
KECU 161135Z AUTO 03004KT 10SM CLR 10/05 A3039 RMK AO2
KECU 161115Z AUTO 03005KT 10SM CLR 10/04 A3038 RMK AO2
KECU 161055Z AUTO 01006KT 10SM CLR 10/04 A3037 RMK AO2
KECU 161035Z AUTO 02005KT 10SM CLR 10/05 A3037 RMK AO2
KECU 161015Z AUTO 02006KT 10SM CLR 11/05 A3037 RMK AO2
KECU 160955Z AUTO 03005KT 10SM FEW050 11/05 A3036 RMK AO2
KECU 160935Z AUTO 03007KT 10SM BKN050 12/04 A3036 RMK AO2
KECU 160915Z AUTO 04007G12KT 10SM SCT050 12/04 A3035 RMK AO2
KECU 160855Z AUTO 03008G13KT 10SM FEW050 12/05 A3035 RMK AO2
KECU 160835Z AUTO 03008G14KT 10SM CLR 12/05 A3035 RMK AO2
KECU 160815Z AUTO 04008G15KT 10SM CLR 13/05 A3035 RMK AO2
KECU 160755Z AUTO 03010G17KT 10SM CLR 13/05 A3035 RMK AO2
KECU 160735Z AUTO 03009G15KT 10SM CLR 13/05 A3035 RMK AO2
KECU 160715Z AUTO 04008G16KT 10SM CLR 13/05 A3035 RMK AO2
KECU 160655Z AUTO 03007G15KT 10SM CLR 14/05 A3035 RMK AO2
KECU 160635Z AUTO 04011G16KT 10SM FEW023 FEW031 SCT050 14/05 A3035 RMK AO2
KECU 160615Z AUTO 03009G14KT 10SM FEW022 SCT031 SCT048 14/05 A3034 RMK AO2
KECU 160555Z AUTO 04010G20KT 010V070 10SM CLR 15/05 A3033 RMK AO2
KECU 160535Z AUTO 04012G19KT 10SM CLR 15/06 A3033 RMK AO2
KECU 160515Z AUTO 04012G19KT 10SM CLR 15/06 A3032 RMK AO2
KECU 160455Z AUTO 03012KT 10SM CLR 16/06 A3032 RMK AO2
KECU 160435Z AUTO 04008G19KT 10SM CLR 16/06 A3032 RMK AO2
KECU 160415Z AUTO 04008G16KT 360V060 10SM CLR 16/06 A3031 RMK AO2
KECU 160355Z AUTO 03012G17KT 10SM FEW049 16/06 A3029 RMK AO2
KECU 160335Z AUTO 01009G14KT 340V040 10SM CLR 16/07 A3028 RMK AO2
KECU 160315Z AUTO 02008G14KT 10SM FEW050 17/06 A3027 RMK AO2
KECU 160255Z AUTO 02011G18KT 10SM FEW050 17/07 A3026 RMK AO2
KECU 160235Z AUTO 02010G16KT 10SM FEW047 FEW055 17/07 A3024 RMK AO2
KECU 160215Z AUTO 02012KT 10SM SCT046 SCT055 17/07 A3023 RMK AO2
KECU 160155Z AUTO 02013G18KT 10SM SCT046 18/07 A3022 RMK AO2
KECU 160135Z AUTO 02010G17KT 10SM FEW050 18/06 A3022 RMK AO2
KECU 160115Z AUTO 01010G17KT 10SM FEW050 19/07 A3021 RMK AO2
KECU 160055Z AUTO 02012KT 10SM FEW050 19/07 A3020 RMK AO2
KECU 160035Z AUTO 02009KT 10SM CLR 19/08 A3020 RMK AO2
KECU 160015Z AUTO 01008G15KT 10SM CLR 20/08 A3019 RMK AO2
KECU 152355Z AUTO 01010G18KT 10SM CLR 21/08 A3018 RMK AO2
KECU 152335Z AUTO 02011G16KT 10SM CLR 22/08 A3017 RMK AO2
KECU 152315Z AUTO 01013G18KT 10SM CLR 22/08 A3016 RMK AO2
KECU 152255Z AUTO 01011G18KT 10SM CLR 23/09 A3016 RMK AO2
KECU 152235Z AUTO 01010G18KT 10SM CLR 23/08 A3015 RMK AO2
KECU 152215Z AUTO 02015G20KT 10SM CLR 24/08 A3015 RMK AO2
KECU 152155Z AUTO 36013G20KT 10SM CLR 24/09 A3014 RMK AO2
KECU 152135Z AUTO 35015KT 10SM CLR 25/09 A3013 RMK AO2
KECU 152115Z AUTO 35013G19KT 10SM CLR 25/08 A3013 RMK AO2
KECU 152055Z AUTO 02009G20KT 340V040 10SM CLR 26/10 A3013 RMK AO2
KECU 152035Z AUTO 36015KT 10SM FEW060 25/10 A3012 RMK AO2
KECU 152015Z AUTO 35015KT 10SM FEW060 26/10 A3012 RMK AO2
KECU 151955Z AUTO 03011G17KT 10SM SCT055 25/08 A3012 RMK AO2
KECU 151935Z AUTO 01012G18KT 10SM BKN055 27/08 A3013 RMK AO2
KECU 151915Z AUTO 36009G18KT 10SM BKN050 26/09 A3013 RMK AO2
KECU 151855Z AUTO 36011G18KT 10SM CLR 27/04 A3013 RMK AO2
KECU 151835Z AUTO 35013G19KT 10SM CLR 28/05 A3012 RMK AO2 LTG DSNT SE
KECU 151815Z AUTO 36011KT 10SM BKN050 27/05 A3013 RMK AO2 LTG DSNT SE
KECU 151755Z AUTO 34010G16KT 10SM SCT050 26/06 A3014 RMK AO2 LTG DSNT S
KECU 151735Z AUTO 33013KT 10SM CLR 27/10 A3013 RMK AO2 LTG DSNT S
KECU 151715Z AUTO 33011KT 10SM FEW027 27/12 A3012 RMK AO2
KECU 151655Z AUTO 35012G19KT 10SM SCT027 SCT041 SCT050 26/13 A3012 RMK AO2
KECU 151635Z AUTO 33013KT 10SM FEW021 SCT035 BKN041 26/19 A3012 RMK AO2
KECU 151615Z AUTO 32004G10KT 10SM FEW013 SCT022 BKN028 25/21 A3013 RMK AO2
KECU 151555Z AUTO 34006KT 9SM BKN013 OVC023 24/21 A3013 RMK AO2
KECU 151535Z AUTO 33003KT 10SM BKN013 BKN030 BKN034 24/21 A3012 RMK AO2
KECU 151515Z AUTO 34003KT 9SM SCT009 SCT037 24/21 A3011 RMK AO2
KECU 151455Z AUTO 00000KT 6SM BR FEW005 BKN010 23/21 A3011 RMK AO2
KECU 151435Z AUTO 36004KT 5SM BR SCT006 OVC011 22/21 A3010 RMK AO2
KECU 151415Z AUTO 35004KT 4SM BR BKN005 OVC013 22/21 A3009 RMK AO2
KECU 151355Z AUTO 00000KT 4SM BR 22/21 A3008 RMK AO2
KECU 151335Z AUTO 00000KT 3SM BR 21/21 A3007 RMK AO2
KECU 151315Z AUTO 00000KT 1 3/4SM BR 21/21 A3006 RMK AO2
KECU 151255Z AUTO 00000KT 3SM BR 21/21 A3005 RMK AO2
KECU 151235Z AUTO 00000KT 2 1/2SM BR OVC003 21/21 A3005 RMK AO2
KECU 151215Z AUTO 00000KT 3SM BR OVC003 21/21 A3004 RMK AO2
KECU 151155Z AUTO 00000KT 2 1/2SM BR OVC003 21/21 A3003 RMK AO2
KECU 151135Z AUTO 17004KT 2SM BR OVC003 21/21 A3002 RMK AO2
KECU 151115Z AUTO 17006KT 1 1/4SM BR OVC003 21/21 A3001 RMK AO2
KECU 151055Z AUTO 17007KT 3/4SM BR OVC003 21/21 A3001 RMK AO2
KECU 151035Z AUTO 16008KT 1 1/2SM BR OVC003 21/21 A3000 RMK AO2
KECU 151015Z AUTO 16008KT 2 1/2SM BR OVC003 21/21 A2999 RMK AO2
KECU 150955Z AUTO 16009KT 5SM BR OVC004 21/21 A2999 RMK AO2
KECU 150935Z AUTO 16008KT 5SM BR OVC004 21/21 A2998 RMK AO2
KECU 150915Z AUTO 16010KT 5SM BR OVC004 21/21 A2998 RMK AO2
KECU 150855Z AUTO 15007KT 5SM BR BKN004 21/20 A2998 RMK AO2
KECU 150835Z AUTO 14007KT 5SM BR BKN003 21/20 A2998 RMK AO2
KECU 150815Z AUTO 15008G13KT 5SM BR OVC004 21/20 A2998 RMK AO2
KECU 150755Z AUTO 15009G17KT 5SM BR OVC004 21/21 A2997 RMK AO2
KECU 150735Z AUTO 15009KT 6SM BR BKN004 21/20 A2997 RMK AO2
KECU 150715Z AUTO 15009KT 9SM FEW004 21/20 A2998 RMK AO2
KECU 150655Z AUTO 15008KT 10SM CLR 21/19 A2998 RMK AO2
KECU 150635Z AUTO 15008KT 10SM CLR 21/19 A2998 RMK AO2
KECU 150615Z AUTO 15008KT 10SM CLR 21/19 A2998 RMK AO2
KECU 150555Z AUTO 16008KT 10SM CLR 21/19 A2998 RMK AO2